sensor_id;sensor_type;location;lat;lon;timestamp;P1;durP1;ratioP1;P2;durP2;ratioP2
50066;SDS011;35952;52.524;13.340;2022-12-07T00:01:22;10.60;;;7.95;;
50066;SDS011;35952;52.524;13.340;2022-12-07T00:03:50;12.52;;;9.00;;
50066;SDS011;35952;52.524;13.340;2022-12-07T00:06:18;14.73;;;9.48;;
50066;SDS011;35952;52.524;13.340;2022-12-07T00:08:44;12.38;;;8.20;;
50066;SDS011;35952;52.524;13.340;2022-12-07T00:11:12;13.90;;;9.45;;
50066;SDS011;35952;52.524;13.340;2022-12-07T00:13:42;12.52;;;8.18;;
50066;SDS011;35952;52.524;13.340;2022-12-07T00:16:10;16.73;;;10.07;;
50066;SDS011;35952;52.524;13.340;2022-12-07T00:18:40;18.48;;;9.30;;
50066;SDS011;35952;52.524;13.340;2022-12-07T00:21:08;14.95;;;9.23;;
50066;SDS011;35952;52.524;13.340;2022-12-07T00:23:35;14.35;;;7.93;;
50066;SDS011;35952;52.524;13.340;2022-12-07T00:26:11;12.80;;;9.03;;
50066;SDS011;35952;52.524;13.340;2022-12-07T00:28:48;12.23;;;9.13;;
50066;SDS011;35952;52.524;13.340;2022-12-07T00:31:16;10.15;;;7.97;;
50066;SDS011;35952;52.524;13.340;2022-12-07T00:33:44;14.02;;;9.20;;
50066;SDS011;35952;52.524;13.340;2022-12-07T00:36:11;11.98;;;7.90;;
50066;SDS011;35952;52.524;13.340;2022-12-07T00:38:39;12.50;;;9.55;;
50066;SDS011;35952;52.524;13.340;2022-12-07T00:41:05;15.73;;;9.60;;
50066;SDS011;35952;52.524;13.340;2022-12-07T00:43:36;12.60;;;8.82;;
50066;SDS011;35952;52.524;13.340;2022-12-07T00:46:02;13.70;;;8.80;;
50066;SDS011;35952;52.524;13.340;2022-12-07T00:48:28;15.53;;;9.53;;
50066;SDS011;35952;52.524;13.340;2022-12-07T00:50:54;12.47;;;7.63;;
50066;SDS011;35952;52.524;13.340;2022-12-07T00:53:19;12.53;;;8.60;;
50066;SDS011;35952;52.524;13.340;2022-12-07T00:55:45;10.23;;;7.60;;
50066;SDS011;35952;52.524;13.340;2022-12-07T00:58:11;10.10;;;7.67;;
50066;SDS011;35952;52.524;13.340;2022-12-07T01:00:37;11.33;;;8.17;;
50066;SDS011;35952;52.524;13.340;2022-12-07T01:03:05;12.43;;;8.32;;
50066;SDS011;35952;52.524;13.340;2022-12-07T01:05:31;12.35;;;7.88;;
50066;SDS011;35952;52.524;13.340;2022-12-07T01:07:57;13.70;;;8.63;;
50066;SDS011;35952;52.524;13.340;2022-12-07T01:10:22;12.00;;;8.57;;
50066;SDS011;35952;52.524;13.340;2022-12-07T01:12:48;11.47;;;8.30;;
50066;SDS011;35952;52.524;13.340;2022-12-07T01:15:13;11.10;;;7.67;;
50066;SDS011;35952;52.524;13.340;2022-12-07T01:17:39;13.90;;;10.00;;
50066;SDS011;35952;52.524;13.340;2022-12-07T01:20:05;11.53;;;8.10;;
50066;SDS011;35952;52.524;13.340;2022-12-07T01:22:31;10.70;;;7.85;;
50066;SDS011;35952;52.524;13.340;2022-12-07T01:25:05;10.40;;;7.65;;
50066;SDS011;35952;52.524;13.340;2022-12-07T01:27:33;10.43;;;7.63;;
50066;SDS011;35952;52.524;13.340;2022-12-07T01:29:59;8.00;;;6.20;;
50066;SDS011;35952;52.524;13.340;2022-12-07T01:32:25;10.30;;;6.67;;
50066;SDS011;35952;52.524;13.340;2022-12-07T01:34:51;9.68;;;6.28;;
50066;SDS011;35952;52.524;13.340;2022-12-07T01:37:16;7.80;;;6.30;;
50066;SDS011;35952;52.524;13.340;2022-12-07T01:39:42;12.17;;;7.20;;
50066;SDS011;35952;52.524;13.340;2022-12-07T01:42:10;8.30;;;6.03;;
50066;SDS011;35952;52.524;13.340;2022-12-07T01:47:40;13.98;;;7.07;;
50066;SDS011;35952;52.524;13.340;2022-12-07T01:50:08;7.53;;;6.07;;
50066;SDS011;35952;52.524;13.340;2022-12-07T01:52:34;7.97;;;5.90;;
50066;SDS011;35952;52.524;13.340;2022-12-07T01:55:06;7.10;;;6.20;;
50066;SDS011;35952;52.524;13.340;2022-12-07T01:57:36;8.27;;;6.47;;
50066;SDS011;35952;52.524;13.340;2022-12-07T02:00:05;12.13;;;8.63;;
50066;SDS011;35952;52.524;13.340;2022-12-07T02:02:36;8.93;;;6.10;;
50066;SDS011;35952;52.524;13.340;2022-12-07T02:05:06;7.78;;;5.97;;
50066;SDS011;35952;52.524;13.340;2022-12-07T02:07:32;9.70;;;6.73;;
50066;SDS011;35952;52.524;13.340;2022-12-07T02:10:20;7.22;;;6.47;;
50066;SDS011;35952;52.524;13.340;2022-12-07T02:12:52;9.13;;;6.10;;
50066;SDS011;35952;52.524;13.340;2022-12-07T02:18:24;8.20;;;6.00;;
50066;SDS011;35952;52.524;13.340;2022-12-07T02:21:08;8.73;;;7.05;;
50066;SDS011;35952;52.524;13.340;2022-12-07T02:23:56;7.45;;;6.05;;
50066;SDS011;35952;52.524;13.340;2022-12-07T02:31:55;8.13;;;6.40;;
50066;SDS011;35952;52.524;13.340;2022-12-07T02:34:32;8.93;;;6.80;;
50066;SDS011;35952;52.524;13.340;2022-12-07T02:37:13;8.30;;;6.60;;
50066;SDS011;35952;52.524;13.340;2022-12-07T02:39:48;7.70;;;6.60;;
50066;SDS011;35952;52.524;13.340;2022-12-07T02:42:27;9.75;;;6.90;;
50066;SDS011;35952;52.524;13.340;2022-12-07T02:45:01;9.50;;;7.80;;
50066;SDS011;35952;52.524;13.340;2022-12-07T02:47:27;13.88;;;7.55;;
50066;SDS011;35952;52.524;13.340;2022-12-07T02:49:56;9.98;;;6.78;;
50066;SDS011;35952;52.524;13.340;2022-12-07T02:52:22;10.63;;;6.93;;
50066;SDS011;35952;52.524;13.340;2022-12-07T02:54:48;9.80;;;7.93;;
50066;SDS011;35952;52.524;13.340;2022-12-07T02:57:21;10.57;;;7.97;;
50066;SDS011;35952;52.524;13.340;2022-12-07T03:05:05;9.38;;;6.63;;
50066;SDS011;35952;52.524;13.340;2022-12-07T03:15:43;11.93;;;8.80;;
50066;SDS011;35952;52.524;13.340;2022-12-07T03:18:16;12.82;;;6.95;;
50066;SDS011;35952;52.524;13.340;2022-12-07T03:20:46;10.02;;;7.90;;
50066;SDS011;35952;52.524;13.340;2022-12-07T03:23:16;11.95;;;8.45;;
50066;SDS011;35952;52.524;13.340;2022-12-07T03:25:47;15.38;;;8.60;;
50066;SDS011;35952;52.524;13.340;2022-12-07T03:28:16;18.75;;;8.80;;
50066;SDS011;35952;52.524;13.340;2022-12-07T03:33:17;15.18;;;8.95;;
50066;SDS011;35952;52.524;13.340;2022-12-07T03:36:04;17.63;;;9.73;;
50066;SDS011;35952;52.524;13.340;2022-12-07T03:38:46;16.58;;;11.13;;
50066;SDS011;35952;52.524;13.340;2022-12-07T03:41:17;12.43;;;8.63;;
50066;SDS011;35952;52.524;13.340;2022-12-07T03:43:47;14.80;;;9.75;;
50066;SDS011;35952;52.524;13.340;2022-12-07T03:46:18;12.80;;;9.18;;
50066;SDS011;35952;52.524;13.340;2022-12-07T03:54:34;15.77;;;9.93;;
50066;SDS011;35952;52.524;13.340;2022-12-07T03:57:08;15.45;;;10.15;;
50066;SDS011;35952;52.524;13.340;2022-12-07T03:59:36;15.68;;;10.68;;
50066;SDS011;35952;52.524;13.340;2022-12-07T04:02:04;12.43;;;9.23;;
50066;SDS011;35952;52.524;13.340;2022-12-07T04:04:31;15.43;;;10.55;;
50066;SDS011;35952;52.524;13.340;2022-12-07T04:06:57;14.27;;;9.38;;
50066;SDS011;35952;52.524;13.340;2022-12-07T04:09:22;17.67;;;10.33;;
50066;SDS011;35952;52.524;13.340;2022-12-07T04:11:48;19.77;;;10.77;;
50066;SDS011;35952;52.524;13.340;2022-12-07T04:14:14;19.20;;;11.50;;
50066;SDS011;35952;52.524;13.340;2022-12-07T04:16:49;17.55;;;11.50;;
50066;SDS011;35952;52.524;13.340;2022-12-07T04:19:17;16.48;;;10.68;;
50066;SDS011;35952;52.524;13.340;2022-12-07T04:21:44;17.52;;;10.65;;
50066;SDS011;35952;52.524;13.340;2022-12-07T04:24:11;21.02;;;12.27;;
50066;SDS011;35952;52.524;13.340;2022-12-07T04:26:38;19.42;;;11.85;;
50066;SDS011;35952;52.524;13.340;2022-12-07T04:29:03;20.67;;;12.40;;
50066;SDS011;35952;52.524;13.340;2022-12-07T04:31:29;22.73;;;12.98;;
50066;SDS011;35952;52.524;13.340;2022-12-07T04:33:55;21.07;;;12.33;;
50066;SDS011;35952;52.524;13.340;2022-12-07T04:36:20;26.60;;;14.10;;
50066;SDS011;35952;52.524;13.340;2022-12-07T04:38:46;20.33;;;12.83;;
50066;SDS011;35952;52.524;13.340;2022-12-07T04:41:12;18.30;;;13.23;;
50066;SDS011;35952;52.524;13.340;2022-12-07T04:43:38;23.87;;;15.40;;
50066;SDS011;35952;52.524;13.340;2022-12-07T04:46:03;21.70;;;13.30;;
50066;SDS011;35952;52.524;13.340;2022-12-07T04:48:29;19.97;;;11.90;;
50066;SDS011;35952;52.524;13.340;2022-12-07T04:50:55;22.17;;;14.17;;
50066;SDS011;35952;52.524;13.340;2022-12-07T04:53:20;25.53;;;15.20;;
50066;SDS011;35952;52.524;13.340;2022-12-07T04:55:46;23.23;;;14.03;;
50066;SDS011;35952;52.524;13.340;2022-12-07T04:58:12;26.63;;;14.90;;
50066;SDS011;35952;52.524;13.340;2022-12-07T05:00:38;22.73;;;14.90;;
50066;SDS011;35952;52.524;13.340;2022-12-07T05:03:04;26.47;;;14.83;;
50066;SDS011;35952;52.524;13.340;2022-12-07T05:05:29;26.07;;;15.87;;
50066;SDS011;35952;52.524;13.340;2022-12-07T05:07:55;29.17;;;15.83;;
50066;SDS011;35952;52.524;13.340;2022-12-07T05:10:20;27.33;;;13.97;;
50066;SDS011;35952;52.524;13.340;2022-12-07T05:12:46;25.50;;;15.87;;
50066;SDS011;35952;52.524;13.340;2022-12-07T05:15:12;27.50;;;16.90;;
50066;SDS011;35952;52.524;13.340;2022-12-07T05:17:40;28.23;;;16.38;;
50066;SDS011;35952;52.524;13.340;2022-12-07T05:20:06;33.83;;;18.23;;
50066;SDS011;35952;52.524;13.340;2022-12-07T05:22:32;31.38;;;17.75;;
50066;SDS011;35952;52.524;13.340;2022-12-07T05:24:57;27.23;;;17.03;;
50066;SDS011;35952;52.524;13.340;2022-12-07T05:27:23;27.87;;;16.10;;
50066;SDS011;35952;52.524;13.340;2022-12-07T05:29:51;27.90;;;15.77;;
50066;SDS011;35952;52.524;13.340;2022-12-07T05:32:17;25.58;;;16.60;;
50066;SDS011;35952;52.524;13.340;2022-12-07T05:34:43;29.13;;;16.67;;
50066;SDS011;35952;52.524;13.340;2022-12-07T05:37:09;26.70;;;16.80;;
50066;SDS011;35952;52.524;13.340;2022-12-07T05:39:34;31.23;;;19.03;;
50066;SDS011;35952;52.524;13.340;2022-12-07T05:42:00;29.63;;;18.40;;
50066;SDS011;35952;52.524;13.340;2022-12-07T05:44:38;31.40;;;18.92;;
50066;SDS011;35952;52.524;13.340;2022-12-07T05:47:04;28.33;;;17.90;;
50066;SDS011;35952;52.524;13.340;2022-12-07T05:49:30;31.53;;;17.40;;
50066;SDS011;35952;52.524;13.340;2022-12-07T05:51:55;29.17;;;15.83;;
50066;SDS011;35952;52.524;13.340;2022-12-07T05:54:21;29.63;;;18.60;;
50066;SDS011;35952;52.524;13.340;2022-12-07T05:56:47;32.67;;;18.80;;
50066;SDS011;35952;52.524;13.340;2022-12-07T05:59:12;28.00;;;17.97;;
50066;SDS011;35952;52.524;13.340;2022-12-07T06:02:13;31.17;;;18.40;;
50066;SDS011;35952;52.524;13.340;2022-12-07T06:04:40;32.72;;;18.27;;
50066;SDS011;35952;52.524;13.340;2022-12-07T06:07:07;30.45;;;16.83;;
50066;SDS011;35952;52.524;13.340;2022-12-07T06:09:34;32.70;;;18.67;;
50066;SDS011;35952;52.524;13.340;2022-12-07T06:12:00;28.35;;;16.30;;
50066;SDS011;35952;52.524;13.340;2022-12-07T06:14:44;28.52;;;16.27;;
50066;SDS011;35952;52.524;13.340;2022-12-07T06:17:10;30.43;;;16.40;;
50066;SDS011;35952;52.524;13.340;2022-12-07T06:19:37;36.22;;;18.65;;
50066;SDS011;35952;52.524;13.340;2022-12-07T06:22:03;33.30;;;18.17;;
50066;SDS011;35952;52.524;13.340;2022-12-07T06:24:30;29.20;;;16.55;;
50066;SDS011;35952;52.524;13.340;2022-12-07T06:26:56;31.23;;;18.45;;
50066;SDS011;35952;52.524;13.340;2022-12-07T06:29:22;27.13;;;16.80;;
50066;SDS011;35952;52.524;13.340;2022-12-07T06:31:47;23.23;;;14.90;;
50066;SDS011;35952;52.524;13.340;2022-12-07T06:34:14;29.60;;;15.60;;
50066;SDS011;35952;52.524;13.340;2022-12-07T06:36:41;30.10;;;15.27;;
50066;SDS011;35952;52.524;13.340;2022-12-07T06:39:07;24.43;;;17.30;;
50066;SDS011;35952;52.524;13.340;2022-12-07T06:41:34;30.77;;;15.80;;
50066;SDS011;35952;52.524;13.340;2022-12-07T06:44:06;26.30;;;17.15;;
50066;SDS011;35952;52.524;13.340;2022-12-07T06:46:32;30.98;;;17.38;;
50066;SDS011;35952;52.524;13.340;2022-12-07T06:48:58;29.73;;;18.13;;
50066;SDS011;35952;52.524;13.340;2022-12-07T06:51:23;31.70;;;17.97;;
50066;SDS011;35952;52.524;13.340;2022-12-07T06:53:49;43.03;;;22.60;;
50066;SDS011;35952;52.524;13.340;2022-12-07T06:56:15;33.53;;;19.57;;
50066;SDS011;35952;52.524;13.340;2022-12-07T06:58:40;33.73;;;19.53;;
50066;SDS011;35952;52.524;13.340;2022-12-07T07:01:13;32.73;;;18.13;;
50066;SDS011;35952;52.524;13.340;2022-12-07T07:03:39;30.10;;;19.45;;
50066;SDS011;35952;52.524;13.340;2022-12-07T07:06:05;29.57;;;17.80;;
50066;SDS011;35952;52.524;13.340;2022-12-07T07:08:32;31.03;;;18.70;;
50066;SDS011;35952;52.524;13.340;2022-12-07T07:10:58;32.80;;;17.60;;
50066;SDS011;35952;52.524;13.340;2022-12-07T07:13:23;35.40;;;20.03;;
50066;SDS011;35952;52.524;13.340;2022-12-07T07:15:49;34.90;;;19.40;;
50066;SDS011;35952;52.524;13.340;2022-12-07T07:18:15;30.23;;;18.70;;
50066;SDS011;35952;52.524;13.340;2022-12-07T07:20:40;31.50;;;17.53;;
50066;SDS011;35952;52.524;13.340;2022-12-07T07:23:06;32.20;;;19.33;;
50066;SDS011;35952;52.524;13.340;2022-12-07T07:25:32;27.53;;;18.83;;
50066;SDS011;35952;52.524;13.340;2022-12-07T07:27:58;28.30;;;16.73;;
50066;SDS011;35952;52.524;13.340;2022-12-07T07:30:24;26.57;;;18.00;;
50066;SDS011;35952;52.524;13.340;2022-12-07T07:32:50;29.10;;;16.15;;
50066;SDS011;35952;52.524;13.340;2022-12-07T07:35:15;30.30;;;15.80;;
50066;SDS011;35952;52.524;13.340;2022-12-07T07:37:41;27.07;;;17.60;;
50066;SDS011;35952;52.524;13.340;2022-12-07T07:40:07;30.63;;;15.40;;
50066;SDS011;35952;52.524;13.340;2022-12-07T07:42:34;26.75;;;15.25;;
50066;SDS011;35952;52.524;13.340;2022-12-07T07:44:59;29.30;;;15.43;;
50066;SDS011;35952;52.524;13.340;2022-12-07T07:47:25;22.37;;;14.80;;
50066;SDS011;35952;52.524;13.340;2022-12-07T07:49:50;22.50;;;13.00;;
50066;SDS011;35952;52.524;13.340;2022-12-07T07:52:16;24.40;;;13.60;;
50066;SDS011;35952;52.524;13.340;2022-12-07T07:54:41;23.30;;;13.03;;
50066;SDS011;35952;52.524;13.340;2022-12-07T07:57:06;20.80;;;12.00;;
50066;SDS011;35952;52.524;13.340;2022-12-07T07:59:32;26.60;;;12.20;;
50066;SDS011;35952;52.524;13.340;2022-12-07T08:01:58;16.57;;;11.20;;
50066;SDS011;35952;52.524;13.340;2022-12-07T08:04:23;20.40;;;12.90;;
50066;SDS011;35952;52.524;13.340;2022-12-07T08:06:49;14.53;;;10.23;;
50066;SDS011;35952;52.524;13.340;2022-12-07T08:09:14;15.27;;;9.93;;
50066;SDS011;35952;52.524;13.340;2022-12-07T08:11:40;15.97;;;10.70;;
50066;SDS011;35952;52.524;13.340;2022-12-07T08:14:05;15.30;;;10.90;;
50066;SDS011;35952;52.524;13.340;2022-12-07T08:16:31;14.77;;;10.63;;
50066;SDS011;35952;52.524;13.340;2022-12-07T08:18:56;17.77;;;11.10;;
50066;SDS011;35952;52.524;13.340;2022-12-07T08:21:22;14.73;;;10.40;;
50066;SDS011;35952;52.524;13.340;2022-12-07T08:23:47;15.30;;;9.10;;
50066;SDS011;35952;52.524;13.340;2022-12-07T08:26:14;15.10;;;8.63;;
50066;SDS011;35952;52.524;13.340;2022-12-07T08:28:40;13.80;;;9.00;;
50066;SDS011;35952;52.524;13.340;2022-12-07T08:31:08;13.57;;;8.80;;
50066;SDS011;35952;52.524;13.340;2022-12-07T08:33:38;13.63;;;7.90;;
50066;SDS011;35952;52.524;13.340;2022-12-07T08:36:05;10.33;;;8.60;;
50066;SDS011;35952;52.524;13.340;2022-12-07T08:38:33;10.60;;;8.17;;
50066;SDS011;35952;52.524;13.340;2022-12-07T08:41:00;10.20;;;6.53;;
50066;SDS011;35952;52.524;13.340;2022-12-07T08:43:25;12.10;;;6.83;;
50066;SDS011;35952;52.524;13.340;2022-12-07T08:45:54;12.93;;;6.30;;
50066;SDS011;35952;52.524;13.340;2022-12-07T08:48:33;8.53;;;5.40;;
50066;SDS011;35952;52.524;13.340;2022-12-07T08:51:03;7.60;;;5.53;;
50066;SDS011;35952;52.524;13.340;2022-12-07T08:53:28;6.03;;;4.03;;
50066;SDS011;35952;52.524;13.340;2022-12-07T08:55:55;3.77;;;3.47;;
50066;SDS011;35952;52.524;13.340;2022-12-07T08:58:22;6.07;;;4.37;;
50066;SDS011;35952;52.524;13.340;2022-12-07T09:00:47;5.03;;;4.50;;
50066;SDS011;35952;52.524;13.340;2022-12-07T09:03:13;3.70;;;3.10;;
50066;SDS011;35952;52.524;13.340;2022-12-07T09:05:38;4.87;;;4.10;;
50066;SDS011;35952;52.524;13.340;2022-12-07T09:08:04;7.87;;;3.20;;
50066;SDS011;35952;52.524;13.340;2022-12-07T09:10:31;7.73;;;3.23;;
50066;SDS011;35952;52.524;13.340;2022-12-07T09:12:56;6.50;;;3.97;;
50066;SDS011;35952;52.524;13.340;2022-12-07T09:15:25;3.73;;;3.43;;
50066;SDS011;35952;52.524;13.340;2022-12-07T09:17:54;3.70;;;3.08;;
50066;SDS011;35952;52.524;13.340;2022-12-07T09:20:20;3.63;;;3.00;;
50066;SDS011;35952;52.524;13.340;2022-12-07T09:22:45;4.50;;;3.33;;
50066;SDS011;35952;52.524;13.340;2022-12-07T09:25:11;4.90;;;2.80;;
50066;SDS011;35952;52.524;13.340;2022-12-07T09:27:36;3.23;;;2.93;;
50066;SDS011;35952;52.524;13.340;2022-12-07T09:30:02;3.50;;;2.50;;
50066;SDS011;35952;52.524;13.340;2022-12-07T09:32:29;3.47;;;3.20;;
50066;SDS011;35952;52.524;13.340;2022-12-07T09:34:54;5.07;;;2.90;;
50066;SDS011;35952;52.524;13.340;2022-12-07T09:37:20;4.93;;;4.50;;
50066;SDS011;35952;52.524;13.340;2022-12-07T09:39:45;4.67;;;3.90;;
50066;SDS011;35952;52.524;13.340;2022-12-07T09:42:13;5.07;;;3.77;;
50066;SDS011;35952;52.524;13.340;2022-12-07T09:45:05;4.40;;;3.47;;
50066;SDS011;35952;52.524;13.340;2022-12-07T09:47:36;5.73;;;4.47;;
50066;SDS011;35952;52.524;13.340;2022-12-07T09:50:21;3.60;;;3.40;;
50066;SDS011;35952;52.524;13.340;2022-12-07T09:52:49;3.63;;;3.33;;
50066;SDS011;35952;52.524;13.340;2022-12-07T09:55:21;2.60;;;2.47;;
50066;SDS011;35952;52.524;13.340;2022-12-07T09:57:49;2.65;;;2.45;;
50066;SDS011;35952;52.524;13.340;2022-12-07T10:00:17;3.20;;;2.97;;
50066;SDS011;35952;52.524;13.340;2022-12-07T10:02:46;3.70;;;2.97;;
50066;SDS011;35952;52.524;13.340;2022-12-07T10:05:20;3.72;;;3.45;;
50066;SDS011;35952;52.524;13.340;2022-12-07T10:07:50;3.40;;;3.10;;
50066;SDS011;35952;52.524;13.340;2022-12-07T10:10:26;5.23;;;4.20;;
50066;SDS011;35952;52.524;13.340;2022-12-07T10:13:01;3.20;;;2.90;;
50066;SDS011;35952;52.524;13.340;2022-12-07T10:15:44;4.22;;;3.40;;
50066;SDS011;35952;52.524;13.340;2022-12-07T10:18:18;6.30;;;3.10;;
50066;SDS011;35952;52.524;13.340;2022-12-07T10:21:15;3.73;;;3.43;;
50066;SDS011;35952;52.524;13.340;2022-12-07T10:24:02;6.03;;;4.47;;
50066;SDS011;35952;52.524;13.340;2022-12-07T10:26:36;8.00;;;3.83;;
50066;SDS011;35952;52.524;13.340;2022-12-07T10:31:42;4.00;;;3.60;;
50066;SDS011;35952;52.524;13.340;2022-12-07T10:34:26;5.05;;;3.88;;
50066;SDS011;35952;52.524;13.340;2022-12-07T10:37:11;4.53;;;4.05;;
50066;SDS011;35952;52.524;13.340;2022-12-07T10:39:40;3.65;;;3.35;;
50066;SDS011;35952;52.524;13.340;2022-12-07T10:44:48;5.20;;;4.60;;
50066;SDS011;35952;52.524;13.340;2022-12-07T10:55:33;5.72;;;4.50;;
50066;SDS011;35952;52.524;13.340;2022-12-07T10:58:43;5.20;;;4.80;;
50066;SDS011;35952;52.524;13.340;2022-12-07T11:01:47;6.15;;;5.65;;
50066;SDS011;35952;52.524;13.340;2022-12-07T11:04:18;7.10;;;5.33;;
50066;SDS011;35952;52.524;13.340;2022-12-07T11:07:20;7.60;;;6.53;;
50066;SDS011;35952;52.524;13.340;2022-12-07T11:09:59;7.10;;;5.80;;
50066;SDS011;35952;52.524;13.340;2022-12-07T11:18:25;6.07;;;5.47;;
50066;SDS011;35952;52.524;13.340;2022-12-07T11:21:09;6.80;;;4.65;;
50066;SDS011;35952;52.524;13.340;2022-12-07T11:23:56;7.37;;;5.53;;
50066;SDS011;35952;52.524;13.340;2022-12-07T11:34:54;8.93;;;6.73;;
50066;SDS011;35952;52.524;13.340;2022-12-07T11:37:25;9.47;;;7.07;;
50066;SDS011;35952;52.524;13.340;2022-12-07T11:40:04;7.80;;;6.60;;
50066;SDS011;35952;52.524;13.340;2022-12-07T11:42:41;14.65;;;7.18;;
50066;SDS011;35952;52.524;13.340;2022-12-07T11:45:13;7.85;;;5.78;;
50066;SDS011;35952;52.524;13.340;2022-12-07T11:47:48;8.13;;;6.97;;
50066;SDS011;35952;52.524;13.340;2022-12-07T11:53:40;5.97;;;4.90;;
50066;SDS011;35952;52.524;13.340;2022-12-07T11:56:15;7.47;;;6.20;;
50066;SDS011;35952;52.524;13.340;2022-12-07T12:04:01;6.10;;;5.30;;
50066;SDS011;35952;52.524;13.340;2022-12-07T12:06:39;7.30;;;4.97;;
50066;SDS011;35952;52.524;13.340;2022-12-07T12:20:13;5.37;;;4.57;;
50066;SDS011;35952;52.524;13.340;2022-12-07T12:22:42;6.30;;;4.60;;
50066;SDS011;35952;52.524;13.340;2022-12-07T12:25:24;5.00;;;4.60;;
50066;SDS011;35952;52.524;13.340;2022-12-07T12:27:54;4.43;;;4.03;;
50066;SDS011;35952;52.524;13.340;2022-12-07T12:30:38;7.43;;;5.00;;
50066;SDS011;35952;52.524;13.340;2022-12-07T12:33:15;5.23;;;4.70;;
50066;SDS011;35952;52.524;13.340;2022-12-07T12:47:37;7.73;;;4.10;;
50066;SDS011;35952;52.524;13.340;2022-12-07T12:50:15;6.07;;;5.13;;
50066;SDS011;35952;52.524;13.340;2022-12-07T12:57:34;4.17;;;3.77;;
50066;SDS011;35952;52.524;13.340;2022-12-07T13:00:20;5.60;;;4.37;;
50066;SDS011;35952;52.524;13.340;2022-12-07T13:02:52;6.27;;;4.37;;
50066;SDS011;35952;52.524;13.340;2022-12-07T13:05:20;5.50;;;3.40;;
50066;SDS011;35952;52.524;13.340;2022-12-07T13:07:52;3.83;;;2.93;;
50066;SDS011;35952;52.524;13.340;2022-12-07T13:23:16;6.53;;;3.73;;
50066;SDS011;35952;52.524;13.340;2022-12-07T13:25:45;5.13;;;3.80;;
50066;SDS011;35952;52.524;13.340;2022-12-07T13:28:18;3.13;;;2.63;;
50066;SDS011;35952;52.524;13.340;2022-12-07T13:33:53;8.30;;;3.43;;
50066;SDS011;35952;52.524;13.340;2022-12-07T13:36:23;4.23;;;3.23;;
50066;SDS011;35952;52.524;13.340;2022-12-07T13:38:51;5.20;;;4.57;;
50066;SDS011;35952;52.524;13.340;2022-12-07T13:41:20;3.70;;;3.20;;
50066;SDS011;35952;52.524;13.340;2022-12-07T13:43:52;6.50;;;4.40;;
50066;SDS011;35952;52.524;13.340;2022-12-07T13:49:37;5.00;;;3.17;;
50066;SDS011;35952;52.524;13.340;2022-12-07T13:52:18;4.33;;;3.63;;
50066;SDS011;35952;52.524;13.340;2022-12-07T13:54:45;5.70;;;4.33;;
50066;SDS011;35952;52.524;13.340;2022-12-07T13:57:20;5.47;;;4.50;;
50066;SDS011;35952;52.524;13.340;2022-12-07T13:59:46;5.33;;;3.83;;
50066;SDS011;35952;52.524;13.340;2022-12-07T14:02:24;4.70;;;3.80;;
50066;SDS011;35952;52.524;13.340;2022-12-07T14:04:51;3.83;;;3.30;;
50066;SDS011;35952;52.524;13.340;2022-12-07T14:07:30;6.30;;;3.20;;
50066;SDS011;35952;52.524;13.340;2022-12-07T14:10:00;12.43;;;4.60;;
50066;SDS011;35952;52.524;13.340;2022-12-07T14:12:28;10.47;;;3.43;;
50066;SDS011;35952;52.524;13.340;2022-12-07T14:14:55;7.10;;;3.87;;
50066;SDS011;35952;52.524;13.340;2022-12-07T14:17:25;8.33;;;5.30;;
50066;SDS011;35952;52.524;13.340;2022-12-07T14:19:55;6.10;;;3.70;;
50066;SDS011;35952;52.524;13.340;2022-12-07T14:22:29;3.83;;;3.43;;
50066;SDS011;35952;52.524;13.340;2022-12-07T14:25:13;8.40;;;3.73;;
50066;SDS011;35952;52.524;13.340;2022-12-07T14:27:50;5.57;;;4.50;;
50066;SDS011;35952;52.524;13.340;2022-12-07T14:30:21;7.60;;;4.77;;
50066;SDS011;35952;52.524;13.340;2022-12-07T14:32:48;6.23;;;4.83;;
50066;SDS011;35952;52.524;13.340;2022-12-07T14:35:18;9.10;;;5.00;;
50066;SDS011;35952;52.524;13.340;2022-12-07T14:37:45;12.53;;;6.70;;
50066;SDS011;35952;52.524;13.340;2022-12-07T14:40:22;6.03;;;3.83;;
50066;SDS011;35952;52.524;13.340;2022-12-07T14:42:52;7.30;;;3.15;;
50066;SDS011;35952;52.524;13.340;2022-12-07T14:45:22;4.30;;;3.90;;
50066;SDS011;35952;52.524;13.340;2022-12-07T14:47:48;7.15;;;3.15;;
50066;SDS011;35952;52.524;13.340;2022-12-07T14:50:15;6.80;;;3.88;;
50066;SDS011;35952;52.524;13.340;2022-12-07T14:52:43;6.33;;;3.13;;
50066;SDS011;35952;52.524;13.340;2022-12-07T14:55:20;7.07;;;4.00;;
50066;SDS011;35952;52.524;13.340;2022-12-07T14:57:52;5.93;;;3.37;;
50066;SDS011;35952;52.524;13.340;2022-12-07T15:00:18;7.97;;;3.90;;
50066;SDS011;35952;52.524;13.340;2022-12-07T15:02:46;8.82;;;3.90;;
50066;SDS011;35952;52.524;13.340;2022-12-07T15:05:12;9.30;;;4.43;;
50066;SDS011;35952;52.524;13.340;2022-12-07T15:07:38;8.93;;;4.33;;
50066;SDS011;35952;52.524;13.340;2022-12-07T15:10:04;5.00;;;4.07;;
50066;SDS011;35952;52.524;13.340;2022-12-07T15:12:30;4.68;;;3.30;;
50066;SDS011;35952;52.524;13.340;2022-12-07T15:14:56;10.47;;;3.17;;
50066;SDS011;35952;52.524;13.340;2022-12-07T15:17:21;6.33;;;2.87;;
50066;SDS011;35952;52.524;13.340;2022-12-07T15:19:47;7.73;;;3.77;;
50066;SDS011;35952;52.524;13.340;2022-12-07T15:22:12;4.27;;;3.47;;
50066;SDS011;35952;52.524;13.340;2022-12-07T15:24:38;5.57;;;2.90;;
50066;SDS011;35952;52.524;13.340;2022-12-07T15:27:04;4.57;;;2.83;;
50066;SDS011;35952;52.524;13.340;2022-12-07T15:29:29;3.47;;;3.07;;
50066;SDS011;35952;52.524;13.340;2022-12-07T15:31:54;7.40;;;2.80;;
50066;SDS011;35952;52.524;13.340;2022-12-07T15:34:20;9.67;;;3.00;;
50066;SDS011;35952;52.524;13.340;2022-12-07T15:36:46;7.10;;;3.23;;
50066;SDS011;35952;52.524;13.340;2022-12-07T15:39:12;6.03;;;3.30;;
50066;SDS011;35952;52.524;13.340;2022-12-07T15:41:37;3.87;;;3.47;;
50066;SDS011;35952;52.524;13.340;2022-12-07T15:44:03;4.70;;;2.70;;
50066;SDS011;35952;52.524;13.340;2022-12-07T15:46:47;6.78;;;4.25;;
50066;SDS011;35952;52.524;13.340;2022-12-07T15:49:14;3.43;;;3.00;;
50066;SDS011;35952;52.524;13.340;2022-12-07T15:51:42;6.55;;;2.95;;
50066;SDS011;35952;52.524;13.340;2022-12-07T15:54:11;7.35;;;3.78;;
50066;SDS011;35952;52.524;13.340;2022-12-07T15:56:40;6.05;;;2.55;;
50066;SDS011;35952;52.524;13.340;2022-12-07T15:59:06;4.37;;;3.13;;
50066;SDS011;35952;52.524;13.340;2022-12-07T16:01:31;7.93;;;4.70;;
50066;SDS011;35952;52.524;13.340;2022-12-07T16:03:57;4.90;;;3.80;;
50066;SDS011;35952;52.524;13.340;2022-12-07T16:06:24;8.05;;;3.83;;
50066;SDS011;35952;52.524;13.340;2022-12-07T16:08:50;3.50;;;3.00;;
50066;SDS011;35952;52.524;13.340;2022-12-07T16:11:16;9.77;;;3.50;;
50066;SDS011;35952;52.524;13.340;2022-12-07T16:13:41;6.10;;;3.10;;
50066;SDS011;35952;52.524;13.340;2022-12-07T16:16:09;11.10;;;3.07;;
50066;SDS011;35952;52.524;13.340;2022-12-07T16:18:37;24.42;;;11.45;;
50066;SDS011;35952;52.524;13.340;2022-12-07T16:21:02;13.20;;;4.50;;
50066;SDS011;35952;52.524;13.340;2022-12-07T16:23:29;3.20;;;3.00;;
50066;SDS011;35952;52.524;13.340;2022-12-07T16:26:02;5.60;;;3.10;;
50066;SDS011;35952;52.524;13.340;2022-12-07T16:28:29;8.52;;;3.67;;
50066;SDS011;35952;52.524;13.340;2022-12-07T16:31:01;7.37;;;4.00;;
50066;SDS011;35952;52.524;13.340;2022-12-07T16:33:28;6.68;;;3.58;;